createdAt,value
2023-01-08T00:02:54.235Z,5.5
2023-01-08T00:05:56.012Z,5.9
2023-01-08T00:08:57.939Z,7.1
2023-01-08T00:11:59.896Z,7.7
2023-01-08T00:15:01.860Z,5.6
2023-01-08T00:18:05.936Z,4.9
2023-01-08T00:21:05.777Z,5
2023-01-08T00:24:07.796Z,5.7
2023-01-08T00:27:09.718Z,6.1
2023-01-08T00:30:11.695Z,4.8
2023-01-08T00:33:13.682Z,6.1
2023-01-08T00:36:15.645Z,6.7
2023-01-08T00:39:17.599Z,6.3
2023-01-08T00:42:19.521Z,7.3
2023-01-08T00:45:21.518Z,6
2023-01-08T00:48:23.486Z,4.8
2023-01-08T00:51:25.429Z,5.4
2023-01-08T00:54:27.372Z,5.2
2023-01-08T00:57:29.369Z,4.8
2023-01-08T01:00:31.296Z,4.8
2023-01-08T01:03:33.246Z,4.7
2023-01-08T01:06:35.214Z,5.7
2023-01-08T01:09:37.282Z,5.2
2023-01-08T01:12:39.174Z,5.8
2023-01-08T01:15:41.130Z,5
2023-01-08T01:18:43.088Z,6
2023-01-08T01:21:45.027Z,4.9
2023-01-08T01:24:47.041Z,4.2
2023-01-08T01:27:49.027Z,4.9
2023-01-08T01:30:51.000Z,4.4
2023-01-08T01:33:52.914Z,3.8
2023-01-08T01:36:54.879Z,4.4
2023-01-08T01:39:56.818Z,5.7
2023-01-08T01:42:58.780Z,5.5
2023-01-08T01:46:00.758Z,5.7
2023-01-08T01:49:02.709Z,4.7
2023-01-08T01:52:04.632Z,4.4
2023-01-08T01:55:06.629Z,6.2
2023-01-08T01:58:08.550Z,7.6
2023-01-08T02:01:10.596Z,6.7
2023-01-08T02:04:12.558Z,3.9
2023-01-08T02:07:14.458Z,4.8
2023-01-08T02:10:16.388Z,5.4
2023-01-08T02:13:18.348Z,6.5
2023-01-08T02:16:20.346Z,6.4
2023-01-08T02:19:22.298Z,5.1
2023-01-08T02:22:24.233Z,5.3
2023-01-08T02:25:26.227Z,5.8
2023-01-08T02:28:28.161Z,4.8
2023-01-08T02:31:30.126Z,5.8
2023-01-08T02:34:32.103Z,5.9
2023-01-08T02:37:34.065Z,5.5
2023-01-08T02:40:36.010Z,5.8
2023-01-08T02:43:37.958Z,6.9
2023-01-08T02:46:39.905Z,6.9
2023-01-08T02:49:41.907Z,7.9
2023-01-08T02:52:43.848Z,7.8
2023-01-08T02:55:45.794Z,8.2
2023-01-08T02:58:47.760Z,6.6
2023-01-08T03:01:49.894Z,6.5
2023-01-08T03:04:51.734Z,8.3
2023-01-08T03:07:53.642Z,8
2023-01-08T03:10:55.606Z,8.2
2023-01-08T03:13:57.614Z,8
2023-01-08T03:16:59.577Z,7.7
2023-01-08T03:20:01.499Z,10
2023-01-08T03:23:03.472Z,7.5
2023-01-08T03:26:05.477Z,10.5
2023-01-08T03:29:07.402Z,6.9
2023-01-08T03:32:09.474Z,9.4
2023-01-08T03:35:11.312Z,9.8
2023-01-08T03:38:13.270Z,8.1
2023-01-08T03:41:15.217Z,11.8
2023-01-08T03:44:17.190Z,10.1
2023-01-08T03:47:19.171Z,8.8
2023-01-08T03:50:21.132Z,10.8
2023-01-08T03:53:23.079Z,9.6
2023-01-08T03:56:25.065Z,10.4
2023-01-08T03:59:26.998Z,10.1
2023-01-08T04:02:29.088Z,9.8
2023-01-08T04:05:30.952Z,12
2023-01-08T04:08:32.903Z,9.3
2023-01-08T04:11:34.890Z,9.7
2023-01-08T04:14:36.862Z,8
2023-01-08T04:17:38.857Z,7.4
2023-01-08T04:20:40.818Z,8.1
2023-01-08T04:23:42.731Z,8
2023-01-08T04:26:44.696Z,11.6
2023-01-08T04:29:46.674Z,8.1
2023-01-08T04:32:48.651Z,8.6
2023-01-08T04:35:50.701Z,10.5
2023-01-08T04:38:52.600Z,8.3
2023-01-08T04:41:54.529Z,7.5
2023-01-08T04:44:56.499Z,9
2023-01-08T04:47:58.451Z,9
2023-01-08T04:51:00.444Z,7.2
2023-01-08T04:54:02.399Z,7.8
2023-01-08T04:57:04.393Z,8.2
2023-01-08T05:00:06.309Z,6.1
2023-01-08T05:03:08.331Z,6.4
2023-01-08T05:06:10.225Z,8.1
2023-01-08T05:09:12.225Z,6.5
2023-01-08T05:12:14.185Z,11.5
2023-01-08T05:15:16.130Z,7
2023-01-08T05:18:18.119Z,7.1
2023-01-08T05:21:20.067Z,7.7
2023-01-08T05:24:22.069Z,10.1
2023-01-08T05:27:24.028Z,9.1
2023-01-08T05:30:25.969Z,10.3
2023-01-08T05:33:27.923Z,7.2
2023-01-08T05:36:29.881Z,7.4
2023-01-08T05:39:31.815Z,10.6
2023-01-08T05:42:33.803Z,8.6
2023-01-08T05:45:35.751Z,8.5
2023-01-08T05:48:37.935Z,9.8
2023-01-08T05:51:39.707Z,9.8
2023-01-08T05:54:41.676Z,9.5
2023-01-08T05:57:43.663Z,6.8
2023-01-08T06:00:45.613Z,7.7
2023-01-08T06:03:47.559Z,8
2023-01-08T06:06:49.545Z,8.3
2023-01-08T06:09:51.502Z,10.3
2023-01-08T06:12:53.441Z,8.9
2023-01-08T06:15:55.474Z,8.1
2023-01-08T06:18:57.354Z,7.1
2023-01-08T06:21:59.356Z,7.6
2023-01-08T06:25:01.276Z,8.6
2023-01-08T06:28:03.255Z,9.8
2023-01-08T06:31:05.268Z,7.9
2023-01-08T06:34:07.188Z,7.7
2023-01-08T06:37:09.155Z,6.9
2023-01-08T06:40:11.120Z,7
2023-01-08T06:43:13.070Z,8.1
2023-01-08T06:46:15.074Z,7.4
2023-01-08T06:49:16.998Z,6.4
2023-01-08T06:52:18.945Z,10.6
2023-01-08T06:55:20.903Z,5.5
2023-01-08T06:58:22.900Z,8.9
2023-01-08T07:01:24.996Z,7.1
2023-01-08T07:04:26.811Z,6.6
2023-01-08T07:07:28.780Z,6.1
2023-01-08T07:10:30.734Z,7.9
2023-01-08T07:13:32.684Z,4.8
2023-01-08T07:16:34.648Z,6.3
2023-01-08T07:19:36.597Z,6.9
2023-01-08T07:22:38.698Z,7.1
2023-01-08T07:25:40.553Z,5.7
2023-01-08T07:28:42.482Z,7.2
2023-01-08T07:31:44.476Z,5.4
2023-01-08T07:34:46.415Z,6.9
2023-01-08T07:37:48.378Z,6
2023-01-08T07:40:50.379Z,5.7
2023-01-08T07:43:52.332Z,5.1
2023-01-08T07:46:54.345Z,6.1
2023-01-08T07:49:56.249Z,4.9
2023-01-08T07:52:58.176Z,5.5
2023-01-08T07:56:00.207Z,8
2023-01-08T07:59:02.153Z,5.7
2023-01-08T08:02:04.199Z,8
2023-01-08T08:05:06.079Z,8.2
2023-01-08T08:08:08.142Z,6.2
2023-01-08T08:11:10.055Z,7.3
2023-01-08T08:14:11.997Z,7
2023-01-08T08:17:13.946Z,8.4
2023-01-08T08:20:15.920Z,5.8
2023-01-08T08:23:17.860Z,5.9
2023-01-08T08:26:19.919Z,7.5
2023-01-08T08:29:21.828Z,6.3
2023-01-08T08:32:23.832Z,7.6
2023-01-08T08:35:25.796Z,6.7
2023-01-08T08:38:27.805Z,6.5
2023-01-08T08:41:29.660Z,5.7
2023-01-08T08:44:31.644Z,5.3
2023-01-08T08:47:33.585Z,6.1
2023-01-08T08:50:35.555Z,5.6
2023-01-08T08:53:37.517Z,4.9
2023-01-08T08:56:39.543Z,6.6
2023-01-08T08:59:41.468Z,5.7
2023-01-08T09:02:43.540Z,6.8
2023-01-08T09:05:45.424Z,5.1
2023-01-08T09:08:47.352Z,6.9
2023-01-08T09:11:49.308Z,8
2023-01-08T09:14:51.272Z,7.2
2023-01-08T09:17:53.261Z,5.6
2023-01-08T09:20:55.241Z,6.8
2023-01-08T09:23:57.203Z,6.4
2023-01-08T09:26:59.129Z,6.1
2023-01-08T09:30:01.150Z,9
2023-01-08T09:33:03.286Z,7.2
2023-01-08T09:36:05.031Z,8.3
2023-01-08T09:39:07.032Z,6.2
2023-01-08T09:42:08.992Z,6.3
2023-01-08T09:45:10.982Z,7
2023-01-08T09:48:12.955Z,7.8
2023-01-08T09:51:14.903Z,7.7
2023-01-08T09:54:16.868Z,6
2023-01-08T09:57:18.807Z,5.8
2023-01-08T10:00:20.777Z,8.1
2023-01-08T10:03:22.783Z,7.3
2023-01-08T10:06:24.713Z,6.4
2023-01-08T10:09:26.702Z,5.5
2023-01-08T10:12:28.657Z,6.7
2023-01-08T10:15:30.603Z,7.2
2023-01-08T10:18:32.564Z,8
2023-01-08T10:21:34.517Z,7.4
2023-01-08T10:24:36.469Z,8.1
2023-01-08T10:27:38.431Z,6.3
2023-01-08T10:30:40.423Z,5
2023-01-08T10:33:42.379Z,5.8
2023-01-08T10:36:44.333Z,7.8
2023-01-08T10:39:46.271Z,5.8
2023-01-08T10:42:48.229Z,7.2
2023-01-08T10:45:50.239Z,6.2
2023-01-08T10:48:52.166Z,6.7
2023-01-08T10:51:54.213Z,5.6
2023-01-08T10:54:56.183Z,7.7
2023-01-08T10:57:58.160Z,7.5
2023-01-08T11:01:00.242Z,6.2
2023-01-08T11:04:02.089Z,5.5
2023-01-08T11:07:03.994Z,5.3
2023-01-08T11:10:05.986Z,4.9
2023-01-08T11:13:07.941Z,6.4
2023-01-08T11:16:09.960Z,8.2
2023-01-08T11:19:11.852Z,5.3
2023-01-08T11:22:13.859Z,6.2
2023-01-08T11:25:15.785Z,5.1
2023-01-08T11:28:17.782Z,4.8
2023-01-08T11:31:19.722Z,5.5
2023-01-08T11:34:21.667Z,5.5
2023-01-08T11:37:23.668Z,4.9
2023-01-08T11:40:25.633Z,4.9
2023-01-08T11:43:27.584Z,9.8
2023-01-08T11:46:29.534Z,5.5
2023-01-08T11:49:31.519Z,3.9
2023-01-08T11:52:33.492Z,5.4
2023-01-08T11:55:35.434Z,4.8
2023-01-08T11:58:37.400Z,4.3
2023-01-08T12:01:39.477Z,4
2023-01-08T12:04:41.334Z,3.9
2023-01-08T12:07:43.345Z,5
2023-01-08T12:10:45.267Z,3.7
2023-01-08T12:13:47.230Z,3.8
2023-01-08T12:16:49.244Z,3.3
2023-01-08T12:19:51.170Z,4.4
2023-01-08T12:22:53.121Z,4.9
2023-01-08T12:25:55.099Z,4.9
2023-01-08T12:28:57.211Z,3.6
2023-01-08T12:32:04.392Z,4.1
2023-01-08T12:35:01.014Z,4.5
2023-01-08T12:38:03.040Z,4.1
2023-01-08T12:41:05.055Z,3.6
2023-01-08T12:44:07.005Z,4.5
2023-01-08T12:47:08.935Z,4.3
2023-01-08T12:50:10.920Z,3.3
2023-01-08T12:53:12.874Z,3
2023-01-08T12:56:14.845Z,4.6
2023-01-08T12:59:16.772Z,3.8
2023-01-08T13:02:18.848Z,2.6
2023-01-08T13:05:20.687Z,3.2
2023-01-08T13:08:22.657Z,2.6
2023-01-08T13:11:24.650Z,2.9
2023-01-08T13:14:27.460Z,2.4
2023-01-08T13:17:28.586Z,2.5
2023-01-08T13:20:30.547Z,2.8
2023-01-08T13:23:32.517Z,2.4
2023-01-08T13:26:34.441Z,2.7
2023-01-08T13:29:36.411Z,4.4
2023-01-08T13:32:38.392Z,1.8
2023-01-08T13:35:40.416Z,2.9
2023-01-08T13:38:42.316Z,2.7
2023-01-08T13:41:44.283Z,2.1
2023-01-08T13:44:46.242Z,3.4
2023-01-08T13:47:48.230Z,2.2
2023-01-08T13:50:50.188Z,3.2
2023-01-08T13:53:52.148Z,2.7
2023-01-08T13:56:54.343Z,3.1
2023-01-08T13:59:56.073Z,2.3
2023-01-08T14:02:58.114Z,2.3
2023-01-08T14:06:00.025Z,3
2023-01-08T14:09:01.965Z,2.7
2023-01-08T14:12:03.952Z,3.4
2023-01-08T14:15:05.878Z,2.6
2023-01-08T14:18:07.873Z,4.4
2023-01-08T14:21:10.052Z,2.5
2023-01-08T14:24:11.788Z,4
2023-01-08T14:27:13.783Z,2.3
2023-01-08T14:30:15.946Z,2.7
2023-01-08T14:33:17.711Z,3
2023-01-08T14:36:19.688Z,2.2
2023-01-08T14:39:21.656Z,3.7
2023-01-08T14:42:23.591Z,2.6
2023-01-08T14:45:25.567Z,2.6
2023-01-08T14:48:27.552Z,3
2023-01-08T14:51:29.567Z,3
2023-01-08T14:54:31.519Z,2.1
2023-01-08T14:57:33.429Z,2.9
2023-01-08T15:00:35.439Z,2.6
2023-01-08T15:03:37.410Z,2.5
2023-01-08T15:06:39.352Z,3.4
2023-01-08T15:09:41.292Z,3.4
2023-01-08T15:12:43.256Z,3.4
2023-01-08T15:15:45.750Z,3.5
2023-01-08T15:18:47.207Z,2.3
2023-01-08T15:21:49.149Z,3.1
2023-01-08T15:24:51.111Z,3
2023-01-08T15:27:53.330Z,2.6
2023-01-08T15:30:55.047Z,2.4
2023-01-08T15:33:57.050Z,2.7
2023-01-08T15:36:59.001Z,4.2
2023-01-08T15:40:00.994Z,3.6
2023-01-08T15:43:02.985Z,3.5
2023-01-08T15:46:04.956Z,2.4
2023-01-08T15:49:06.920Z,2.9
2023-01-08T15:52:08.832Z,3.7
2023-01-08T15:55:10.801Z,2.4
2023-01-08T15:58:12.777Z,2.5
2023-01-08T16:01:14.829Z,2.5
2023-01-08T16:04:16.696Z,3.5
2023-01-08T16:07:18.667Z,3.4
2023-01-08T16:10:20.660Z,5.7
2023-01-08T16:13:22.582Z,3.7
2023-01-08T16:16:24.597Z,3.3
2023-01-08T16:19:26.522Z,4.1
2023-01-08T16:22:28.517Z,3.8
2023-01-08T16:25:30.459Z,2.9
2023-01-08T16:28:32.432Z,3.1
2023-01-08T16:31:35.866Z,3.4
2023-01-08T16:34:36.370Z,4.9
2023-01-08T16:37:38.315Z,3.5
2023-01-08T16:40:40.376Z,3.4
2023-01-08T16:43:42.234Z,3.9
2023-01-08T16:46:44.198Z,2.5
2023-01-08T16:49:46.175Z,2.8
2023-01-08T16:52:48.123Z,4
2023-01-08T16:55:50.093Z,2.7
2023-01-08T16:58:52.132Z,2.4
2023-01-08T17:01:54.267Z,2.2
2023-01-08T17:04:56.053Z,2.8
2023-01-08T17:07:58.057Z,3.2
2023-01-08T17:11:00.031Z,3.1
2023-01-08T17:14:01.946Z,2.1
2023-01-08T17:17:03.948Z,2.7
2023-01-08T17:20:05.955Z,2.8
2023-01-08T17:23:07.861Z,4.2
2023-01-08T17:26:09.842Z,2.8
2023-01-08T17:29:11.782Z,2.6
2023-01-08T17:32:13.739Z,3.3
2023-01-08T17:35:15.727Z,3
2023-01-08T17:38:17.675Z,2.2
2023-01-08T17:41:19.667Z,2.2
2023-01-08T17:44:21.599Z,1.6
2023-01-08T17:47:23.607Z,1.8
2023-01-08T17:50:25.541Z,3.3
2023-01-08T17:53:27.500Z,2.3
2023-01-08T17:56:29.487Z,2
2023-01-08T17:59:31.404Z,3.4
2023-01-08T18:02:33.452Z,1.5
2023-01-08T18:05:35.339Z,2.4
2023-01-08T18:08:37.294Z,1.7
2023-01-08T18:11:39.267Z,1.2
2023-01-08T18:14:41.248Z,1.2
2023-01-08T18:17:43.215Z,1.5
2023-01-08T18:20:45.160Z,1.7
2023-01-08T18:23:47.118Z,2.9
2023-01-08T18:26:49.161Z,2.6
2023-01-08T18:29:51.185Z,1.9
2023-01-08T18:32:53.089Z,2.5
2023-01-08T18:35:55.068Z,2.1
2023-01-08T18:38:57.204Z,3
2023-01-08T18:41:59.122Z,1.4
2023-01-08T18:45:01.099Z,2.6
2023-01-08T18:48:03.001Z,3.2
2023-01-08T18:51:08.040Z,2
2023-01-08T18:54:10.024Z,2.4
2023-01-08T18:57:11.985Z,3.2
2023-01-08T19:00:13.935Z,1.7
2023-01-08T19:03:15.906Z,1.7
2023-01-08T19:06:18.232Z,1.8
2023-01-08T19:09:20.173Z,1.9
2023-01-08T19:12:22.281Z,2.7
2023-01-08T19:15:24.215Z,1.1
2023-01-08T19:18:26.179Z,1.2
2023-01-08T19:21:28.127Z,2
2023-01-08T19:24:30.124Z,1.8
2023-01-08T19:27:32.141Z,2.2
2023-01-08T19:30:34.078Z,1.8
2023-01-08T19:33:36.028Z,2.9
2023-01-08T19:36:37.983Z,2.9
2023-01-08T19:39:39.940Z,3.6
2023-01-08T19:42:41.932Z,3.5
2023-01-08T19:45:43.950Z,3.2
2023-01-08T19:48:45.892Z,4.1
2023-01-08T19:51:47.849Z,4.1
2023-01-08T19:54:49.806Z,3.9
2023-01-08T19:57:51.776Z,4
2023-01-08T20:00:53.781Z,4
2023-01-08T20:03:55.707Z,3.5
2023-01-08T20:06:57.723Z,2.2
2023-01-08T20:09:59.677Z,3
2023-01-08T20:13:01.749Z,3.3
2023-01-08T20:16:03.604Z,3.1
2023-01-08T20:19:05.564Z,2.8
2023-01-08T20:22:07.551Z,3.5
2023-01-08T20:25:09.629Z,2.9
2023-01-08T20:28:11.508Z,4.7
2023-01-08T20:31:13.538Z,3.4
2023-01-08T20:34:15.596Z,3
2023-01-08T20:37:17.392Z,2.8
2023-01-08T20:40:19.370Z,3.4
2023-01-08T20:43:21.311Z,3.9
2023-01-08T20:46:23.287Z,2.7
2023-01-08T20:49:25.295Z,6
2023-01-08T20:52:27.234Z,2.7
2023-01-08T20:55:29.197Z,4.3
2023-01-08T20:58:31.191Z,4.4
2023-01-08T21:01:33.230Z,5.8
2023-01-08T21:04:35.114Z,3.4
2023-01-08T21:07:37.043Z,4
2023-01-08T21:10:39.041Z,4.1
2023-01-08T21:13:40.996Z,2.6
2023-01-08T21:16:43.103Z,3
2023-01-08T21:19:44.986Z,2.7
2023-01-08T21:22:46.938Z,3.3
2023-01-08T21:25:48.891Z,2.5
2023-01-08T21:28:50.899Z,5.3
2023-01-08T21:31:52.848Z,3.9
2023-01-08T21:34:54.802Z,2.9
2023-01-08T21:37:56.736Z,3.3
2023-01-08T21:40:58.747Z,2.1
2023-01-08T21:44:00.681Z,3.6
2023-01-08T21:47:02.724Z,2.9
2023-01-08T21:50:04.648Z,3.3
2023-01-08T21:53:06.590Z,2.8
2023-01-08T21:56:08.603Z,2.3
2023-01-08T21:59:10.743Z,2.5
2023-01-08T22:02:12.496Z,2.8
2023-01-08T22:05:14.494Z,2.8
2023-01-08T22:08:16.456Z,2.9
2023-01-08T22:11:18.420Z,3.1
2023-01-08T22:14:20.440Z,2.9
2023-01-08T22:17:22.383Z,3.1
2023-01-08T22:20:24.329Z,4.4
2023-01-08T22:23:26.285Z,2.4
2023-01-08T22:26:28.242Z,2
2023-01-08T22:29:30.217Z,2.9
2023-01-08T22:32:32.243Z,3
2023-01-08T22:35:34.193Z,3.7
2023-01-08T22:38:36.149Z,3.3
2023-01-08T22:41:38.131Z,2.8
2023-01-08T22:44:40.116Z,1.9
2023-01-08T22:47:42.057Z,3.3
2023-01-08T22:50:44.020Z,3.2
2023-01-08T22:53:45.995Z,1.8
2023-01-08T22:56:48.059Z,2.3
2023-01-08T22:59:49.916Z,3.2
2023-01-08T23:02:51.980Z,2.6
2023-01-08T23:05:53.853Z,1.8
2023-01-08T23:08:55.835Z,1.6
2023-01-08T23:11:57.790Z,2.4
2023-01-08T23:14:59.776Z,1.5
2023-01-08T23:18:01.758Z,1.7
2023-01-08T23:21:03.721Z,2.1
2023-01-08T23:24:05.675Z,2.2
2023-01-08T23:27:07.591Z,2.5
2023-01-08T23:30:09.595Z,2.7
2023-01-08T23:33:11.542Z,4.2
2023-01-08T23:36:13.583Z,4
2023-01-08T23:39:15.505Z,4.2
2023-01-08T23:42:17.450Z,4.5
2023-01-08T23:45:19.399Z,4.5
2023-01-08T23:48:21.346Z,3.5
2023-01-08T23:51:23.327Z,3.5
2023-01-08T23:54:25.303Z,4.4
2023-01-08T23:57:27.231Z,3.1
